sensor_id;sensor_type;location;lat;lon;timestamp;P1;durP1;ratioP1;P2;durP2;ratioP2
55800;SDS011;41730;51.960;20.158;2023-02-28T00:00:53;47.00;;;20.50;;
55800;SDS011;41730;51.960;20.158;2023-02-28T00:03:24;45.50;;;20.20;;
55800;SDS011;41730;51.960;20.158;2023-02-28T00:05:56;49.80;;;21.80;;
55800;SDS011;41730;51.960;20.158;2023-02-28T00:08:28;45.10;;;19.60;;
55800;SDS011;41730;51.960;20.158;2023-02-28T00:11:02;51.40;;;21.90;;
55800;SDS011;41730;51.960;20.158;2023-02-28T00:13:36;45.80;;;19.90;;
55800;SDS011;41730;51.960;20.158;2023-02-28T00:16:15;48.90;;;20.20;;
55800;SDS011;41730;51.960;20.158;2023-02-28T00:18:52;48.00;;;20.50;;
55800;SDS011;41730;51.960;20.158;2023-02-28T00:21:26;41.90;;;19.70;;
55800;SDS011;41730;51.960;20.158;2023-02-28T00:23:58;40.10;;;17.10;;
55800;SDS011;41730;51.960;20.158;2023-02-28T00:26:30;28.70;;;14.70;;
55800;SDS011;41730;51.960;20.158;2023-02-28T00:29:02;29.60;;;14.20;;
55800;SDS011;41730;51.960;20.158;2023-02-28T00:31:34;36.70;;;14.00;;
55800;SDS011;41730;51.960;20.158;2023-02-28T00:34:06;30.00;;;16.00;;
55800;SDS011;41730;51.960;20.158;2023-02-28T00:36:39;29.80;;;13.80;;
55800;SDS011;41730;51.960;20.158;2023-02-28T00:39:13;30.40;;;14.00;;
55800;SDS011;41730;51.960;20.158;2023-02-28T00:41:45;29.40;;;13.20;;
55800;SDS011;41730;51.960;20.158;2023-02-28T00:44:19;28.90;;;14.20;;
55800;SDS011;41730;51.960;20.158;2023-02-28T00:46:51;23.70;;;13.00;;
55800;SDS011;41730;51.960;20.158;2023-02-28T00:49:24;30.20;;;13.70;;
55800;SDS011;41730;51.960;20.158;2023-02-28T00:51:57;30.10;;;13.80;;
55800;SDS011;41730;51.960;20.158;2023-02-28T00:54:29;25.60;;;13.50;;
55800;SDS011;41730;51.960;20.158;2023-02-28T00:57:01;27.20;;;13.30;;
55800;SDS011;41730;51.960;20.158;2023-02-28T00:59:39;25.40;;;12.80;;
55800;SDS011;41730;51.960;20.158;2023-02-28T01:02:11;24.60;;;11.80;;
55800;SDS011;41730;51.960;20.158;2023-02-28T01:04:43;27.40;;;12.40;;
55800;SDS011;41730;51.960;20.158;2023-02-28T01:07:15;25.70;;;12.70;;
55800;SDS011;41730;51.960;20.158;2023-02-28T01:09:47;22.10;;;11.80;;
55800;SDS011;41730;51.960;20.158;2023-02-28T01:12:18;25.70;;;12.30;;
55800;SDS011;41730;51.960;20.158;2023-02-28T01:14:50;21.90;;;10.90;;
55800;SDS011;41730;51.960;20.158;2023-02-28T01:17:22;25.70;;;12.40;;
55800;SDS011;41730;51.960;20.158;2023-02-28T01:19:54;24.20;;;13.30;;
55800;SDS011;41730;51.960;20.158;2023-02-28T01:22:26;24.50;;;12.40;;
55800;SDS011;41730;51.960;20.158;2023-02-28T01:24:58;24.20;;;12.20;;
55800;SDS011;41730;51.960;20.158;2023-02-28T01:27:32;22.80;;;11.70;;
55800;SDS011;41730;51.960;20.158;2023-02-28T01:30:07;21.60;;;11.90;;
55800;SDS011;41730;51.960;20.158;2023-02-28T01:32:45;23.00;;;12.10;;
55800;SDS011;41730;51.960;20.158;2023-02-28T01:35:20;22.00;;;12.00;;
55800;SDS011;41730;51.960;20.158;2023-02-28T01:38:04;24.30;;;12.20;;
55800;SDS011;41730;51.960;20.158;2023-02-28T01:40:49;23.50;;;12.30;;
55800;SDS011;41730;51.960;20.158;2023-02-28T01:43:23;23.20;;;11.40;;
55800;SDS011;41730;51.960;20.158;2023-02-28T01:46:00;23.50;;;13.40;;
55800;SDS011;41730;51.960;20.158;2023-02-28T01:48:32;26.00;;;12.80;;
55800;SDS011;41730;51.960;20.158;2023-02-28T01:51:10;22.00;;;12.60;;
55800;SDS011;41730;51.960;20.158;2023-02-28T01:53:46;27.40;;;14.20;;
55800;SDS011;41730;51.960;20.158;2023-02-28T01:56:23;26.30;;;14.20;;
55800;SDS011;41730;51.960;20.158;2023-02-28T01:58:57;30.00;;;15.50;;
55800;SDS011;41730;51.960;20.158;2023-02-28T02:01:29;36.80;;;17.30;;
55800;SDS011;41730;51.960;20.158;2023-02-28T02:04:02;33.40;;;17.60;;
55800;SDS011;41730;51.960;20.158;2023-02-28T02:06:38;30.70;;;16.80;;
55800;SDS011;41730;51.960;20.158;2023-02-28T02:09:15;35.10;;;16.50;;
55800;SDS011;41730;51.960;20.158;2023-02-28T02:11:47;36.30;;;16.20;;
55800;SDS011;41730;51.960;20.158;2023-02-28T02:14:25;37.20;;;17.50;;
55800;SDS011;41730;51.960;20.158;2023-02-28T02:17:16;38.10;;;17.80;;
55800;SDS011;41730;51.960;20.158;2023-02-28T02:20:04;38.60;;;17.90;;
55800;SDS011;41730;51.960;20.158;2023-02-28T02:23:09;39.00;;;19.30;;
55800;SDS011;41730;51.960;20.158;2023-02-28T02:25:58;39.10;;;18.60;;
55800;SDS011;41730;51.960;20.158;2023-02-28T02:34:44;42.90;;;20.90;;
55800;SDS011;41730;51.960;20.158;2023-02-28T02:37:24;39.90;;;20.50;;
55800;SDS011;41730;51.960;20.158;2023-02-28T02:40:03;40.10;;;20.00;;
55800;SDS011;41730;51.960;20.158;2023-02-28T02:42:41;41.90;;;21.10;;
55800;SDS011;41730;51.960;20.158;2023-02-28T02:45:21;40.50;;;22.00;;
55800;SDS011;41730;51.960;20.158;2023-02-28T02:47:58;47.40;;;21.70;;
55800;SDS011;41730;51.960;20.158;2023-02-28T02:50:31;48.10;;;23.40;;
55800;SDS011;41730;51.960;20.158;2023-02-28T02:53:07;47.90;;;21.60;;
55800;SDS011;41730;51.960;20.158;2023-02-28T02:55:43;49.80;;;23.10;;
55800;SDS011;41730;51.960;20.158;2023-02-28T02:58:22;45.80;;;21.40;;
55800;SDS011;41730;51.960;20.158;2023-02-28T03:00:59;44.00;;;22.20;;
55800;SDS011;41730;51.960;20.158;2023-02-28T03:03:33;47.30;;;22.40;;
55800;SDS011;41730;51.960;20.158;2023-02-28T03:06:07;46.50;;;23.20;;
55800;SDS011;41730;51.960;20.158;2023-02-28T03:08:38;39.90;;;21.40;;
55800;SDS011;41730;51.960;20.158;2023-02-28T03:11:13;45.80;;;21.10;;
55800;SDS011;41730;51.960;20.158;2023-02-28T03:16:52;46.80;;;22.10;;
55800;SDS011;41730;51.960;20.158;2023-02-28T03:19:54;45.70;;;23.30;;
55800;SDS011;41730;51.960;20.158;2023-02-28T03:22:45;46.30;;;21.60;;
55800;SDS011;41730;51.960;20.158;2023-02-28T03:25:22;49.80;;;23.80;;
55800;SDS011;41730;51.960;20.158;2023-02-28T03:28:05;45.90;;;22.10;;
55800;SDS011;41730;51.960;20.158;2023-02-28T03:30:46;49.70;;;23.30;;
55800;SDS011;41730;51.960;20.158;2023-02-28T03:33:23;41.20;;;22.00;;
55800;SDS011;41730;51.960;20.158;2023-02-28T03:35:58;46.80;;;22.50;;
55800;SDS011;41730;51.960;20.158;2023-02-28T03:38:33;51.70;;;22.70;;
55800;SDS011;41730;51.960;20.158;2023-02-28T03:41:11;46.20;;;22.50;;
55800;SDS011;41730;51.960;20.158;2023-02-28T03:43:47;46.70;;;23.80;;
55800;SDS011;41730;51.960;20.158;2023-02-28T03:46:31;52.50;;;25.10;;
55800;SDS011;41730;51.960;20.158;2023-02-28T03:49:06;44.80;;;23.20;;
55800;SDS011;41730;51.960;20.158;2023-02-28T03:51:43;48.10;;;23.50;;
55800;SDS011;41730;51.960;20.158;2023-02-28T03:54:19;47.80;;;22.10;;
55800;SDS011;41730;51.960;20.158;2023-02-28T03:56:57;45.60;;;22.50;;
55800;SDS011;41730;51.960;20.158;2023-02-28T03:59:36;51.90;;;23.60;;
55800;SDS011;41730;51.960;20.158;2023-02-28T04:02:11;50.20;;;23.70;;
55800;SDS011;41730;51.960;20.158;2023-02-28T04:04:43;53.20;;;24.10;;
55800;SDS011;41730;51.960;20.158;2023-02-28T04:07:17;48.00;;;24.00;;
55800;SDS011;41730;51.960;20.158;2023-02-28T04:09:48;54.90;;;26.00;;
55800;SDS011;41730;51.960;20.158;2023-02-28T04:12:21;53.70;;;25.50;;
55800;SDS011;41730;51.960;20.158;2023-02-28T04:14:53;47.50;;;24.30;;
55800;SDS011;41730;51.960;20.158;2023-02-28T04:17:25;46.80;;;23.90;;
55800;SDS011;41730;51.960;20.158;2023-02-28T04:19:57;55.50;;;25.20;;
55800;SDS011;41730;51.960;20.158;2023-02-28T04:22:28;45.30;;;24.10;;
55800;SDS011;41730;51.960;20.158;2023-02-28T04:25:00;49.50;;;24.80;;
55800;SDS011;41730;51.960;20.158;2023-02-28T04:27:33;52.80;;;25.30;;
55800;SDS011;41730;51.960;20.158;2023-02-28T04:41:36;50.00;;;23.70;;
55800;SDS011;41730;51.960;20.158;2023-02-28T04:44:07;45.80;;;24.30;;
55800;SDS011;41730;51.960;20.158;2023-02-28T04:46:39;46.60;;;24.60;;
55800;SDS011;41730;51.960;20.158;2023-02-28T04:49:12;50.30;;;23.60;;
55800;SDS011;41730;51.960;20.158;2023-02-28T04:51:45;41.50;;;22.60;;
55800;SDS011;41730;51.960;20.158;2023-02-28T04:54:18;43.30;;;23.00;;
55800;SDS011;41730;51.960;20.158;2023-02-28T04:56:49;46.30;;;23.30;;
55800;SDS011;41730;51.960;20.158;2023-02-28T04:59:21;44.80;;;21.80;;
55800;SDS011;41730;51.960;20.158;2023-02-28T05:01:53;39.60;;;21.60;;
55800;SDS011;41730;51.960;20.158;2023-02-28T05:04:24;37.70;;;19.90;;
55800;SDS011;41730;51.960;20.158;2023-02-28T05:06:56;41.10;;;19.90;;
55800;SDS011;41730;51.960;20.158;2023-02-28T05:09:28;40.30;;;20.70;;
55800;SDS011;41730;51.960;20.158;2023-02-28T05:12:01;36.90;;;19.50;;
55800;SDS011;41730;51.960;20.158;2023-02-28T05:14:33;36.80;;;20.10;;
55800;SDS011;41730;51.960;20.158;2023-02-28T05:17:04;41.70;;;20.70;;
55800;SDS011;41730;51.960;20.158;2023-02-28T05:19:36;39.20;;;19.60;;
55800;SDS011;41730;51.960;20.158;2023-02-28T05:22:11;37.10;;;19.90;;
55800;SDS011;41730;51.960;20.158;2023-02-28T05:24:45;34.40;;;19.30;;
55800;SDS011;41730;51.960;20.158;2023-02-28T05:27:17;31.60;;;17.50;;
55800;SDS011;41730;51.960;20.158;2023-02-28T05:29:48;37.60;;;19.20;;
55800;SDS011;41730;51.960;20.158;2023-02-28T05:32:20;34.90;;;18.00;;
55800;SDS011;41730;51.960;20.158;2023-02-28T05:34:52;30.60;;;16.90;;
55800;SDS011;41730;51.960;20.158;2023-02-28T05:37:23;29.60;;;17.30;;
55800;SDS011;41730;51.960;20.158;2023-02-28T05:39:55;31.80;;;17.60;;
55800;SDS011;41730;51.960;20.158;2023-02-28T05:42:26;31.90;;;16.60;;
55800;SDS011;41730;51.960;20.158;2023-02-28T05:44:58;29.30;;;17.10;;
55800;SDS011;41730;51.960;20.158;2023-02-28T05:47:29;30.10;;;17.30;;
55800;SDS011;41730;51.960;20.158;2023-02-28T05:50:01;35.40;;;18.60;;
55800;SDS011;41730;51.960;20.158;2023-02-28T05:52:34;32.80;;;17.10;;
55800;SDS011;41730;51.960;20.158;2023-02-28T05:55:07;30.40;;;17.60;;
55800;SDS011;41730;51.960;20.158;2023-02-28T05:57:39;30.70;;;16.90;;
55800;SDS011;41730;51.960;20.158;2023-02-28T06:00:12;34.70;;;17.90;;
55800;SDS011;41730;51.960;20.158;2023-02-28T06:02:45;31.90;;;17.00;;
55800;SDS011;41730;51.960;20.158;2023-02-28T06:05:17;28.90;;;14.90;;
55800;SDS011;41730;51.960;20.158;2023-02-28T06:07:49;37.20;;;18.30;;
55800;SDS011;41730;51.960;20.158;2023-02-28T06:10:20;34.60;;;16.90;;
55800;SDS011;41730;51.960;20.158;2023-02-28T06:12:52;41.60;;;20.50;;
55800;SDS011;41730;51.960;20.158;2023-02-28T06:15:24;38.00;;;18.90;;
55800;SDS011;41730;51.960;20.158;2023-02-28T06:17:55;48.70;;;22.40;;
55800;SDS011;41730;51.960;20.158;2023-02-28T06:20:28;50.30;;;23.50;;
55800;SDS011;41730;51.960;20.158;2023-02-28T06:23:00;56.90;;;26.60;;
55800;SDS011;41730;51.960;20.158;2023-02-28T06:25:32;52.70;;;26.00;;
55800;SDS011;41730;51.960;20.158;2023-02-28T06:28:04;47.80;;;25.40;;
55800;SDS011;41730;51.960;20.158;2023-02-28T06:30:35;44.00;;;23.10;;
55800;SDS011;41730;51.960;20.158;2023-02-28T06:33:07;34.30;;;18.10;;
55800;SDS011;41730;51.960;20.158;2023-02-28T06:35:39;34.50;;;18.90;;
55800;SDS011;41730;51.960;20.158;2023-02-28T06:38:12;41.10;;;17.50;;
55800;SDS011;41730;51.960;20.158;2023-02-28T06:40:44;52.10;;;21.10;;
55800;SDS011;41730;51.960;20.158;2023-02-28T06:43:22;36.50;;;19.10;;
55800;SDS011;41730;51.960;20.158;2023-02-28T06:45:58;36.70;;;18.20;;
55800;SDS011;41730;51.960;20.158;2023-02-28T06:48:33;31.00;;;16.80;;
55800;SDS011;41730;51.960;20.158;2023-02-28T06:51:06;33.00;;;15.50;;
55800;SDS011;41730;51.960;20.158;2023-02-28T06:53:43;24.30;;;13.40;;
55800;SDS011;41730;51.960;20.158;2023-02-28T06:56:15;27.10;;;13.70;;
55800;SDS011;41730;51.960;20.158;2023-02-28T06:58:48;34.60;;;14.80;;
55800;SDS011;41730;51.960;20.158;2023-02-28T07:01:21;32.20;;;14.20;;
55800;SDS011;41730;51.960;20.158;2023-02-28T07:03:53;29.40;;;13.70;;
55800;SDS011;41730;51.960;20.158;2023-02-28T07:06:24;38.50;;;14.40;;
55800;SDS011;41730;51.960;20.158;2023-02-28T07:08:56;35.50;;;16.10;;
55800;SDS011;41730;51.960;20.158;2023-02-28T07:11:28;37.40;;;15.90;;
55800;SDS011;41730;51.960;20.158;2023-02-28T07:14:00;30.20;;;15.60;;
55800;SDS011;41730;51.960;20.158;2023-02-28T07:16:32;45.00;;;18.40;;
55800;SDS011;41730;51.960;20.158;2023-02-28T07:19:04;24.90;;;13.20;;
55800;SDS011;41730;51.960;20.158;2023-02-28T07:21:36;27.80;;;14.40;;
55800;SDS011;41730;51.960;20.158;2023-02-28T07:24:08;32.00;;;15.10;;
55800;SDS011;41730;51.960;20.158;2023-02-28T07:26:40;28.30;;;14.20;;
55800;SDS011;41730;51.960;20.158;2023-02-28T07:29:13;31.80;;;16.30;;
55800;SDS011;41730;51.960;20.158;2023-02-28T07:31:45;38.60;;;17.90;;
55800;SDS011;41730;51.960;20.158;2023-02-28T07:34:21;41.30;;;19.80;;
55800;SDS011;41730;51.960;20.158;2023-02-28T07:36:54;42.90;;;21.20;;
55800;SDS011;41730;51.960;20.158;2023-02-28T07:39:26;40.20;;;20.80;;
55800;SDS011;41730;51.960;20.158;2023-02-28T07:41:58;40.60;;;20.20;;
55800;SDS011;41730;51.960;20.158;2023-02-28T07:44:32;38.90;;;17.40;;
55800;SDS011;41730;51.960;20.158;2023-02-28T07:47:09;34.80;;;17.10;;
55800;SDS011;41730;51.960;20.158;2023-02-28T07:49:41;37.00;;;16.90;;
55800;SDS011;41730;51.960;20.158;2023-02-28T07:52:13;33.70;;;15.10;;
55800;SDS011;41730;51.960;20.158;2023-02-28T07:54:45;26.80;;;14.40;;
55800;SDS011;41730;51.960;20.158;2023-02-28T07:57:17;22.90;;;12.50;;
55800;SDS011;41730;51.960;20.158;2023-02-28T07:59:49;23.90;;;11.70;;
55800;SDS011;41730;51.960;20.158;2023-02-28T08:02:22;18.60;;;9.00;;
55800;SDS011;41730;51.960;20.158;2023-02-28T08:04:54;14.10;;;8.40;;
55800;SDS011;41730;51.960;20.158;2023-02-28T08:07:27;14.50;;;7.70;;
55800;SDS011;41730;51.960;20.158;2023-02-28T08:09:59;15.80;;;7.10;;
55800;SDS011;41730;51.960;20.158;2023-02-28T08:12:35;11.30;;;6.80;;
55800;SDS011;41730;51.960;20.158;2023-02-28T08:15:09;13.00;;;5.80;;
55800;SDS011;41730;51.960;20.158;2023-02-28T08:17:42;14.20;;;6.20;;
55800;SDS011;41730;51.960;20.158;2023-02-28T08:20:15;14.80;;;6.50;;
55800;SDS011;41730;51.960;20.158;2023-02-28T08:22:47;11.20;;;6.10;;
55800;SDS011;41730;51.960;20.158;2023-02-28T08:25:19;10.70;;;5.90;;
55800;SDS011;41730;51.960;20.158;2023-02-28T08:27:52;8.20;;;4.70;;
55800;SDS011;41730;51.960;20.158;2023-02-28T08:30:24;8.10;;;5.20;;
55800;SDS011;41730;51.960;20.158;2023-02-28T08:32:56;10.40;;;4.80;;
55800;SDS011;41730;51.960;20.158;2023-02-28T08:35:28;9.80;;;5.30;;
55800;SDS011;41730;51.960;20.158;2023-02-28T08:37:59;8.90;;;5.40;;
55800;SDS011;41730;51.960;20.158;2023-02-28T08:40:31;9.80;;;5.70;;
55800;SDS011;41730;51.960;20.158;2023-02-28T08:43:03;11.70;;;6.40;;
55800;SDS011;41730;51.960;20.158;2023-02-28T08:45:36;10.50;;;6.40;;
55800;SDS011;41730;51.960;20.158;2023-02-28T08:48:08;10.10;;;5.70;;
55800;SDS011;41730;51.960;20.158;2023-02-28T08:50:41;12.00;;;5.70;;
55800;SDS011;41730;51.960;20.158;2023-02-28T08:53:23;11.40;;;7.70;;
55800;SDS011;41730;51.960;20.158;2023-02-28T08:55:59;12.10;;;5.80;;
55800;SDS011;41730;51.960;20.158;2023-02-28T08:58:33;9.60;;;5.60;;
55800;SDS011;41730;51.960;20.158;2023-02-28T09:01:09;7.20;;;5.40;;
55800;SDS011;41730;51.960;20.158;2023-02-28T09:03:42;10.10;;;5.90;;
55800;SDS011;41730;51.960;20.158;2023-02-28T09:06:16;12.80;;;7.60;;
55800;SDS011;41730;51.960;20.158;2023-02-28T09:08:48;10.70;;;7.00;;
55800;SDS011;41730;51.960;20.158;2023-02-28T09:11:22;9.40;;;5.40;;
55800;SDS011;41730;51.960;20.158;2023-02-28T09:13:54;8.40;;;5.50;;
55800;SDS011;41730;51.960;20.158;2023-02-28T09:16:27;10.20;;;6.10;;
55800;SDS011;41730;51.960;20.158;2023-02-28T09:19:00;12.20;;;6.60;;
55800;SDS011;41730;51.960;20.158;2023-02-28T09:21:32;13.10;;;6.60;;
55800;SDS011;41730;51.960;20.158;2023-02-28T09:24:05;10.60;;;6.00;;
55800;SDS011;41730;51.960;20.158;2023-02-28T09:26:40;10.40;;;6.10;;
55800;SDS011;41730;51.960;20.158;2023-02-28T09:29:30;10.20;;;6.70;;
55800;SDS011;41730;51.960;20.158;2023-02-28T09:32:04;12.00;;;5.50;;
55800;SDS011;41730;51.960;20.158;2023-02-28T09:34:36;11.80;;;5.80;;
55800;SDS011;41730;51.960;20.158;2023-02-28T09:37:09;15.30;;;8.10;;
55800;SDS011;41730;51.960;20.158;2023-02-28T09:39:40;13.80;;;7.20;;
55800;SDS011;41730;51.960;20.158;2023-02-28T09:42:17;11.30;;;6.50;;
55800;SDS011;41730;51.960;20.158;2023-02-28T09:44:54;11.80;;;5.90;;
55800;SDS011;41730;51.960;20.158;2023-02-28T09:47:29;10.30;;;6.00;;
55800;SDS011;41730;51.960;20.158;2023-02-28T09:50:06;11.40;;;6.00;;
55800;SDS011;41730;51.960;20.158;2023-02-28T09:52:48;12.10;;;6.10;;
55800;SDS011;41730;51.960;20.158;2023-02-28T09:55:25;11.10;;;6.60;;
55800;SDS011;41730;51.960;20.158;2023-02-28T09:58:16;13.20;;;6.40;;
55800;SDS011;41730;51.960;20.158;2023-02-28T10:00:54;9.60;;;5.50;;
55800;SDS011;41730;51.960;20.158;2023-02-28T10:03:33;13.50;;;6.30;;
55800;SDS011;41730;51.960;20.158;2023-02-28T10:06:11;11.70;;;6.70;;
55800;SDS011;41730;51.960;20.158;2023-02-28T10:08:50;13.60;;;7.20;;
55800;SDS011;41730;51.960;20.158;2023-02-28T10:11:29;11.80;;;6.50;;
55800;SDS011;41730;51.960;20.158;2023-02-28T10:14:06;11.10;;;5.80;;
55800;SDS011;41730;51.960;20.158;2023-02-28T10:16:45;11.30;;;6.50;;
55800;SDS011;41730;51.960;20.158;2023-02-28T10:19:23;10.90;;;6.20;;
55800;SDS011;41730;51.960;20.158;2023-02-28T10:22:01;14.50;;;7.30;;
55800;SDS011;41730;51.960;20.158;2023-02-28T10:24:37;13.40;;;6.70;;
55800;SDS011;41730;51.960;20.158;2023-02-28T10:27:14;14.40;;;9.30;;
55800;SDS011;41730;51.960;20.158;2023-02-28T10:29:49;10.90;;;7.20;;
55800;SDS011;41730;51.960;20.158;2023-02-28T10:32:23;14.50;;;7.90;;
55800;SDS011;41730;51.960;20.158;2023-02-28T10:34:59;12.20;;;7.10;;
55800;SDS011;41730;51.960;20.158;2023-02-28T10:37:38;12.40;;;7.00;;
55800;SDS011;41730;51.960;20.158;2023-02-28T10:40:24;11.90;;;7.20;;
55800;SDS011;41730;51.960;20.158;2023-02-28T10:42:59;16.70;;;7.20;;
55800;SDS011;41730;51.960;20.158;2023-02-28T10:45:33;10.50;;;6.80;;
55800;SDS011;41730;51.960;20.158;2023-02-28T10:48:06;12.40;;;7.70;;
55800;SDS011;41730;51.960;20.158;2023-02-28T10:51:07;10.70;;;7.20;;
55800;SDS011;41730;51.960;20.158;2023-02-28T10:53:44;11.80;;;6.80;;
55800;SDS011;41730;51.960;20.158;2023-02-28T10:56:29;15.10;;;7.40;;
55800;SDS011;41730;51.960;20.158;2023-02-28T10:59:03;12.20;;;6.90;;
55800;SDS011;41730;51.960;20.158;2023-02-28T11:01:53;13.80;;;7.70;;
55800;SDS011;41730;51.960;20.158;2023-02-28T11:04:35;14.10;;;8.00;;
55800;SDS011;41730;51.960;20.158;2023-02-28T11:07:16;13.60;;;7.60;;
55800;SDS011;41730;51.960;20.158;2023-02-28T11:09:53;10.70;;;7.20;;
55800;SDS011;41730;51.960;20.158;2023-02-28T11:15:02;12.80;;;7.50;;
55800;SDS011;41730;51.960;20.158;2023-02-28T11:17:36;12.60;;;6.90;;
55800;SDS011;41730;51.960;20.158;2023-02-28T11:20:14;9.70;;;5.70;;
55800;SDS011;41730;51.960;20.158;2023-02-28T11:22:51;11.10;;;6.70;;
55800;SDS011;41730;51.960;20.158;2023-02-28T11:25:28;10.70;;;6.20;;
55800;SDS011;41730;51.960;20.158;2023-02-28T11:28:04;11.80;;;7.30;;
55800;SDS011;41730;51.960;20.158;2023-02-28T11:31:01;11.80;;;6.50;;
55800;SDS011;41730;51.960;20.158;2023-02-28T11:33:42;11.30;;;6.60;;
55800;SDS011;41730;51.960;20.158;2023-02-28T11:36:18;12.30;;;6.20;;
55800;SDS011;41730;51.960;20.158;2023-02-28T11:38:54;11.60;;;6.40;;
55800;SDS011;41730;51.960;20.158;2023-02-28T11:41:39;12.10;;;6.40;;
55800;SDS011;41730;51.960;20.158;2023-02-28T11:44:31;16.50;;;7.60;;
55800;SDS011;41730;51.960;20.158;2023-02-28T11:47:15;12.60;;;7.00;;
55800;SDS011;41730;51.960;20.158;2023-02-28T11:49:56;14.70;;;8.20;;
55800;SDS011;41730;51.960;20.158;2023-02-28T11:52:48;14.80;;;8.00;;
55800;SDS011;41730;51.960;20.158;2023-02-28T11:55:25;13.30;;;6.10;;
55800;SDS011;41730;51.960;20.158;2023-02-28T11:58:03;13.90;;;7.10;;
55800;SDS011;41730;51.960;20.158;2023-02-28T12:00:48;13.20;;;7.80;;
55800;SDS011;41730;51.960;20.158;2023-02-28T12:03:33;15.70;;;8.10;;
55800;SDS011;41730;51.960;20.158;2023-02-28T12:06:16;10.90;;;7.00;;
55800;SDS011;41730;51.960;20.158;2023-02-28T12:09:03;14.20;;;7.50;;
55800;SDS011;41730;51.960;20.158;2023-02-28T12:11:48;12.20;;;6.30;;
55800;SDS011;41730;51.960;20.158;2023-02-28T12:14:29;24.40;;;14.20;;
55800;SDS011;41730;51.960;20.158;2023-02-28T12:17:19;14.60;;;8.50;;
55800;SDS011;41730;51.960;20.158;2023-02-28T12:20:02;12.50;;;7.70;;
55800;SDS011;41730;51.960;20.158;2023-02-28T12:22:45;13.30;;;7.10;;
55800;SDS011;41730;51.960;20.158;2023-02-28T12:28:26;13.30;;;7.70;;
55800;SDS011;41730;51.960;20.158;2023-02-28T12:31:03;15.80;;;7.60;;
55800;SDS011;41730;51.960;20.158;2023-02-28T12:33:40;20.30;;;11.00;;
55800;SDS011;41730;51.960;20.158;2023-02-28T12:36:16;13.50;;;8.70;;
55800;SDS011;41730;51.960;20.158;2023-02-28T12:38:53;13.30;;;7.10;;
55800;SDS011;41730;51.960;20.158;2023-02-28T12:41:33;16.50;;;8.90;;
55800;SDS011;41730;51.960;20.158;2023-02-28T12:44:07;11.70;;;7.60;;
55800;SDS011;41730;51.960;20.158;2023-02-28T12:46:43;12.40;;;7.00;;
55800;SDS011;41730;51.960;20.158;2023-02-28T12:49:19;14.50;;;7.40;;
55800;SDS011;41730;51.960;20.158;2023-02-28T12:51:59;12.70;;;7.10;;
55800;SDS011;41730;51.960;20.158;2023-02-28T12:54:35;13.30;;;7.60;;
55800;SDS011;41730;51.960;20.158;2023-02-28T12:57:15;13.20;;;7.80;;
55800;SDS011;41730;51.960;20.158;2023-02-28T12:59:55;13.10;;;7.80;;
55800;SDS011;41730;51.960;20.158;2023-02-28T13:02:39;16.30;;;8.20;;
55800;SDS011;41730;51.960;20.158;2023-02-28T13:05:44;13.00;;;7.60;;
55800;SDS011;41730;51.960;20.158;2023-02-28T13:08:31;13.00;;;7.30;;
55800;SDS011;41730;51.960;20.158;2023-02-28T13:11:24;15.40;;;8.10;;
55800;SDS011;41730;51.960;20.158;2023-02-28T13:13:59;14.10;;;7.30;;
55800;SDS011;41730;51.960;20.158;2023-02-28T13:16:54;11.60;;;7.40;;
55800;SDS011;41730;51.960;20.158;2023-02-28T13:19:30;13.20;;;7.20;;
55800;SDS011;41730;51.960;20.158;2023-02-28T13:22:04;12.40;;;7.10;;
55800;SDS011;41730;51.960;20.158;2023-02-28T13:24:48;12.80;;;6.80;;
55800;SDS011;41730;51.960;20.158;2023-02-28T13:27:31;16.90;;;8.70;;
55800;SDS011;41730;51.960;20.158;2023-02-28T13:33:28;15.50;;;7.90;;
55800;SDS011;41730;51.960;20.158;2023-02-28T13:36:26;14.40;;;7.80;;
55800;SDS011;41730;51.960;20.158;2023-02-28T13:39:00;14.20;;;8.30;;
55800;SDS011;41730;51.960;20.158;2023-02-28T13:41:46;15.00;;;7.80;;
55800;SDS011;41730;51.960;20.158;2023-02-28T13:44:19;16.20;;;8.90;;
55800;SDS011;41730;51.960;20.158;2023-02-28T13:56:35;15.90;;;8.50;;
55800;SDS011;41730;51.960;20.158;2023-02-28T13:59:19;16.10;;;9.00;;
55800;SDS011;41730;51.960;20.158;2023-02-28T14:02:25;17.00;;;9.00;;
55800;SDS011;41730;51.960;20.158;2023-02-28T14:05:15;21.50;;;9.90;;
55800;SDS011;41730;51.960;20.158;2023-02-28T14:07:57;16.50;;;8.80;;
55800;SDS011;41730;51.960;20.158;2023-02-28T14:10:36;17.30;;;10.10;;
55800;SDS011;41730;51.960;20.158;2023-02-28T14:13:36;14.80;;;8.30;;
55800;SDS011;41730;51.960;20.158;2023-02-28T14:16:13;17.40;;;8.90;;
55800;SDS011;41730;51.960;20.158;2023-02-28T14:18:50;12.30;;;6.30;;
55800;SDS011;41730;51.960;20.158;2023-02-28T14:21:26;17.50;;;9.20;;
55800;SDS011;41730;51.960;20.158;2023-02-28T14:24:16;20.90;;;10.10;;
55800;SDS011;41730;51.960;20.158;2023-02-28T14:27:14;18.40;;;9.70;;
55800;SDS011;41730;51.960;20.158;2023-02-28T14:30:07;16.40;;;9.00;;
55800;SDS011;41730;51.960;20.158;2023-02-28T14:33:11;17.40;;;8.80;;
55800;SDS011;41730;51.960;20.158;2023-02-28T14:35:56;18.90;;;9.50;;
55800;SDS011;41730;51.960;20.158;2023-02-28T14:38:35;18.00;;;10.10;;
55800;SDS011;41730;51.960;20.158;2023-02-28T14:41:16;31.10;;;14.00;;
55800;SDS011;41730;51.960;20.158;2023-02-28T14:43:55;26.30;;;10.50;;
55800;SDS011;41730;51.960;20.158;2023-02-28T14:46:30;15.00;;;9.10;;
55800;SDS011;41730;51.960;20.158;2023-02-28T14:49:12;17.80;;;9.60;;
55800;SDS011;41730;51.960;20.158;2023-02-28T14:51:46;21.00;;;10.40;;
55800;SDS011;41730;51.960;20.158;2023-02-28T14:54:21;19.80;;;10.60;;
55800;SDS011;41730;51.960;20.158;2023-02-28T14:56:55;19.60;;;10.50;;
55800;SDS011;41730;51.960;20.158;2023-02-28T14:59:28;16.20;;;9.90;;
55800;SDS011;41730;51.960;20.158;2023-02-28T15:02:15;15.00;;;9.10;;
55800;SDS011;41730;51.960;20.158;2023-02-28T15:04:59;20.00;;;11.00;;
55800;SDS011;41730;51.960;20.158;2023-02-28T15:07:45;20.80;;;10.40;;
55800;SDS011;41730;51.960;20.158;2023-02-28T15:10:19;18.00;;;10.20;;
55800;SDS011;41730;51.960;20.158;2023-02-28T15:12:54;22.00;;;10.70;;
55800;SDS011;41730;51.960;20.158;2023-02-28T15:15:30;19.90;;;10.40;;
55800;SDS011;41730;51.960;20.158;2023-02-28T15:18:41;19.00;;;10.40;;
55800;SDS011;41730;51.960;20.158;2023-02-28T15:21:18;20.40;;;12.10;;
55800;SDS011;41730;51.960;20.158;2023-02-28T15:26:26;25.00;;;11.70;;
55800;SDS011;41730;51.960;20.158;2023-02-28T15:29:00;18.60;;;10.90;;
55800;SDS011;41730;51.960;20.158;2023-02-28T15:31:35;29.20;;;15.70;;
55800;SDS011;41730;51.960;20.158;2023-02-28T15:34:26;26.00;;;12.20;;
55800;SDS011;41730;51.960;20.158;2023-02-28T15:37:31;24.80;;;13.70;;
55800;SDS011;41730;51.960;20.158;2023-02-28T15:40:14;24.50;;;13.10;;
55800;SDS011;41730;51.960;20.158;2023-02-28T15:42:59;23.70;;;12.60;;
55800;SDS011;41730;51.960;20.158;2023-02-28T15:45:36;26.00;;;14.50;;
55800;SDS011;41730;51.960;20.158;2023-02-28T15:48:18;28.30;;;14.60;;
55800;SDS011;41730;51.960;20.158;2023-02-28T15:50:53;25.20;;;13.60;;